createdAt,value
2022-12-25T00:01:13.828Z,80.26
2022-12-25T00:04:03.395Z,80.18
2022-12-25T00:06:44.756Z,79.99
2022-12-25T00:09:29.178Z,79.88
2022-12-25T00:12:15.728Z,79.81
2022-12-25T00:14:59.356Z,79.70
2022-12-25T00:17:43.976Z,79.85
2022-12-25T00:20:24.531Z,79.97
2022-12-25T00:23:13.800Z,80.22
2022-12-25T00:26:08.829Z,80.43
2022-12-25T00:28:55.009Z,80.35
2022-12-25T00:31:37.730Z,80.42
2022-12-25T00:34:22.424Z,80.36
2022-12-25T00:37:00.772Z,80.33
2022-12-25T00:39:40.960Z,80.47
2022-12-25T00:42:26.318Z,80.54
2022-12-25T00:45:09.598Z,80.63
2022-12-25T00:47:50.645Z,80.78
2022-12-25T00:50:30.468Z,80.72
2022-12-25T00:53:15.430Z,80.55
2022-12-25T00:56:13.659Z,80.71
2022-12-25T00:58:57.301Z,80.60
2022-12-25T01:01:40.834Z,80.52
2022-12-25T01:04:18.928Z,80.47
2022-12-25T01:07:00.932Z,80.68
2022-12-25T01:10:01.614Z,80.68
2022-12-25T01:12:46.218Z,80.55
2022-12-25T01:15:28.890Z,80.23
2022-12-25T01:18:11.614Z,80.26
2022-12-25T01:20:51.641Z,80.40
2022-12-25T01:23:33.685Z,80.41
2022-12-25T01:26:18.609Z,80.52
2022-12-25T01:29:03.545Z,80.54
2022-12-25T01:31:41.320Z,80.59
2022-12-25T01:34:33.898Z,80.59
2022-12-25T01:37:15.657Z,80.73
2022-12-25T01:39:56.914Z,80.57
2022-12-25T01:42:39.498Z,80.52
2022-12-25T01:45:54.252Z,80.35
2022-12-25T01:48:36.591Z,80.48
2022-12-25T01:51:28.552Z,80.52
2022-12-25T01:54:11.865Z,80.49
2022-12-25T01:56:56.280Z,80.63
2022-12-25T01:59:36.711Z,80.61
2022-12-25T02:02:27.399Z,80.61
2022-12-25T02:05:33.140Z,80.84
2022-12-25T02:08:19.056Z,80.64
2022-12-25T02:11:02.337Z,80.80
2022-12-25T02:13:47.668Z,80.67
2022-12-25T02:16:57.853Z,80.70
2022-12-25T02:20:09.296Z,80.51
2022-12-25T02:23:39.750Z,80.45
2022-12-25T02:26:30.187Z,80.45
2022-12-25T02:29:37.582Z,80.55
2022-12-25T02:32:25.228Z,80.88
2022-12-25T02:35:22.998Z,80.72
2022-12-25T02:38:12.253Z,80.74
2022-12-25T02:41:04.701Z,80.75
2022-12-25T02:44:07.730Z,80.69
2022-12-25T02:47:08.519Z,80.88
2022-12-25T02:50:10.447Z,81.11
2022-12-25T02:53:10.991Z,81.09
2022-12-25T02:56:15.553Z,81.34
2022-12-25T02:59:15.663Z,81.34
2022-12-25T03:02:18.946Z,81.01
2022-12-25T03:05:29.627Z,80.98
2022-12-25T03:08:25.095Z,80.98
2022-12-25T03:11:31.260Z,80.74
2022-12-25T03:14:32.189Z,80.73
2022-12-25T03:17:16.840Z,80.76
2022-12-25T03:20:17.430Z,80.85
2022-12-25T03:23:19.796Z,81.07
2022-12-25T03:26:17.071Z,80.96
2022-12-25T03:28:55.201Z,81.07
2022-12-25T03:31:53.251Z,80.85
2022-12-25T03:35:28.464Z,80.92
2022-12-25T03:38:54.557Z,81.09
2022-12-25T03:42:02.796Z,81.03
2022-12-25T03:45:37.067Z,80.98
2022-12-25T03:48:38.101Z,81.21
2022-12-25T03:51:44.185Z,81.15
2022-12-25T03:54:47.702Z,81.26
2022-12-25T03:57:50.220Z,81.17
2022-12-25T04:00:53.924Z,80.98
2022-12-25T04:03:52.066Z,80.96
2022-12-25T04:06:56.336Z,80.96
2022-12-25T04:09:59.165Z,81.05
2022-12-25T04:13:03.235Z,81.05
2022-12-25T04:16:12.604Z,81.06
2022-12-25T04:19:08.055Z,81.16
2022-12-25T04:22:15.186Z,81.05
2022-12-25T04:25:17.562Z,80.62
2022-12-25T04:28:36.003Z,80.77
2022-12-25T04:31:40.551Z,80.40
2022-12-25T04:34:44.913Z,80.51
2022-12-25T04:37:32.020Z,80.73
2022-12-25T04:40:12.404Z,80.69
2022-12-25T04:42:50.087Z,80.82
2022-12-25T04:45:31.780Z,80.73
2022-12-25T04:48:11.103Z,81.02
2022-12-25T04:50:55.342Z,81.06
2022-12-25T04:53:32.631Z,81.04
2022-12-25T04:56:15.428Z,80.66
2022-12-25T04:58:55.074Z,80.74
2022-12-25T05:01:40.245Z,80.90
2022-12-25T05:04:18.390Z,81.07
2022-12-25T05:07:16.717Z,81.12
2022-12-25T05:09:56.616Z,81.14
2022-12-25T05:12:46.031Z,80.90
2022-12-25T05:15:24.543Z,80.85
2022-12-25T05:18:15.306Z,80.89
2022-12-25T05:21:04.830Z,80.98
2022-12-25T05:23:55.072Z,81.01
2022-12-25T05:26:33.512Z,80.95
2022-12-25T05:29:12.662Z,81.00
2022-12-25T05:31:51.735Z,80.88
2022-12-25T05:34:44.599Z,80.89
2022-12-25T05:37:23.958Z,80.81
2022-12-25T05:40:08.852Z,80.99
2022-12-25T05:42:48.449Z,80.93
2022-12-25T05:45:47.289Z,80.90
2022-12-25T05:48:25.600Z,80.81
2022-12-25T05:51:17.010Z,80.84
2022-12-25T05:53:57.621Z,80.78
2022-12-25T05:56:49.672Z,80.60
2022-12-25T05:59:27.953Z,80.79
2022-12-25T06:02:16.650Z,80.94
2022-12-25T06:04:56.245Z,80.82
2022-12-25T06:07:42.365Z,80.85
2022-12-25T06:10:18.729Z,80.68
2022-12-25T06:13:02.749Z,80.66
2022-12-25T06:15:46.277Z,80.83
2022-12-25T06:18:35.060Z,80.86
2022-12-25T06:21:16.042Z,80.93
2022-12-25T06:24:00.050Z,80.81
2022-12-25T06:26:39.477Z,80.99
2022-12-25T06:29:22.913Z,80.95
2022-12-25T06:32:02.524Z,81.00
2022-12-25T06:34:46.001Z,80.86
2022-12-25T06:37:35.041Z,80.80
2022-12-25T06:40:16.364Z,80.83
2022-12-25T06:43:00.316Z,80.79
2022-12-25T06:45:43.698Z,80.82
2022-12-25T06:48:27.027Z,80.69
2022-12-25T06:51:13.788Z,80.96
2022-12-25T06:53:53.912Z,81.03
2022-12-25T06:56:38.483Z,80.85
2022-12-25T06:59:22.790Z,80.97
2022-12-25T07:02:08.425Z,80.80
2022-12-25T07:04:51.914Z,80.78
2022-12-25T07:07:36.401Z,80.72
2022-12-25T07:10:16.799Z,80.61
2022-12-25T07:13:03.236Z,80.54
2022-12-25T07:15:45.697Z,80.41
2022-12-25T07:18:29.417Z,80.57
2022-12-25T07:21:22.843Z,80.71
2022-12-25T07:24:04.507Z,80.80
2022-12-25T07:26:52.556Z,80.82
2022-12-25T07:29:37.378Z,80.80
2022-12-25T07:32:16.605Z,80.72
2022-12-25T07:35:07.265Z,80.81
2022-12-25T07:37:57.034Z,80.90
2022-12-25T07:40:37.516Z,80.79
2022-12-25T07:43:20.805Z,80.67
2022-12-25T07:46:16.830Z,80.71
2022-12-25T07:48:56.995Z,80.83
2022-12-25T07:51:38.174Z,80.85
2022-12-25T07:54:18.711Z,80.89
2022-12-25T07:57:03.732Z,80.73
2022-12-25T07:59:58.033Z,80.67
2022-12-25T08:02:42.277Z,80.83
2022-12-25T08:05:20.602Z,80.86
2022-12-25T08:08:02.273Z,81.04
2022-12-25T08:10:41.787Z,80.78
2022-12-25T08:13:22.523Z,80.75
2022-12-25T08:16:06.789Z,80.74
2022-12-25T08:18:47.864Z,80.78
2022-12-25T08:21:27.320Z,80.87
2022-12-25T08:24:09.294Z,80.91
2022-12-25T08:26:51.010Z,80.92
2022-12-25T08:29:35.600Z,80.78
2022-12-25T08:32:18.650Z,80.90
2022-12-25T08:35:04.121Z,81.07
2022-12-25T08:37:41.814Z,80.99
2022-12-25T08:40:24.895Z,81.31
2022-12-25T08:43:03.484Z,81.19
2022-12-25T08:45:49.783Z,81.20
2022-12-25T08:48:29.240Z,81.14
2022-12-25T08:51:11.312Z,80.95
2022-12-25T08:53:49.339Z,81.01
2022-12-25T08:56:36.500Z,80.62
2022-12-25T08:59:16.535Z,80.49
2022-12-25T09:01:55.690Z,80.38
2022-12-25T09:04:35.725Z,80.27
2022-12-25T09:07:22.765Z,80.11
2022-12-25T09:10:01.732Z,80.50
2022-12-25T09:12:49.756Z,80.59
2022-12-25T09:15:28.279Z,80.71
2022-12-25T09:18:13.530Z,80.88
2022-12-25T09:20:52.968Z,80.81
2022-12-25T09:23:37.840Z,80.85
2022-12-25T09:26:18.915Z,80.64
2022-12-25T09:28:58.841Z,80.80
2022-12-25T09:31:39.735Z,80.99
2022-12-25T09:34:19.533Z,81.25
2022-12-25T09:36:59.702Z,81.18
2022-12-25T09:39:42.170Z,81.20
2022-12-25T09:42:41.080Z,80.99
2022-12-25T09:45:44.091Z,81.08
2022-12-25T09:48:23.230Z,81.00
2022-12-25T09:51:14.823Z,80.96
2022-12-25T09:54:06.078Z,81.03
2022-12-25T09:56:46.709Z,81.24
2022-12-25T09:59:32.529Z,81.14
2022-12-25T10:02:49.926Z,80.98
2022-12-25T10:06:07.476Z,80.89
2022-12-25T10:09:26.262Z,80.71
2022-12-25T10:12:44.025Z,80.78
2022-12-25T10:15:58.709Z,80.77
2022-12-25T10:18:57.908Z,80.74
2022-12-25T10:21:41.082Z,80.54
2022-12-25T10:24:29.239Z,80.60
2022-12-25T10:27:22.401Z,80.49
2022-12-25T10:30:05.119Z,80.75
2022-12-25T10:33:01.682Z,80.76
2022-12-25T10:35:43.413Z,80.79
2022-12-25T10:38:32.490Z,80.91
2022-12-25T10:41:20.942Z,80.86
2022-12-25T10:44:03.774Z,80.81
2022-12-25T10:46:51.785Z,80.85
2022-12-25T10:49:41.606Z,80.54
2022-12-25T10:52:39.511Z,80.66
2022-12-25T10:55:31.101Z,80.66
2022-12-25T10:58:11.245Z,80.67
2022-12-25T11:01:06.096Z,80.67
2022-12-25T11:03:52.293Z,80.72
2022-12-25T11:06:41.848Z,80.64
2022-12-25T11:09:24.477Z,80.40
2022-12-25T11:12:08.833Z,80.56
2022-12-25T11:15:05.016Z,80.61
2022-12-25T11:17:56.954Z,80.43
2022-12-25T11:20:43.782Z,80.45
2022-12-25T11:23:39.251Z,80.35
2022-12-25T11:26:26.929Z,80.42
2022-12-25T11:29:20.968Z,80.43
2022-12-25T11:32:04.341Z,80.49
2022-12-25T11:34:54.475Z,80.31
2022-12-25T11:37:49.915Z,80.32
2022-12-25T11:40:33.866Z,80.31
2022-12-25T11:43:40.731Z,80.20
2022-12-25T11:46:26.866Z,80.38
2022-12-25T11:49:16.369Z,80.34
2022-12-25T11:52:03.390Z,80.35
2022-12-25T11:55:03.539Z,80.33
2022-12-25T11:57:46.051Z,80.25
2022-12-25T12:00:28.931Z,80.28
2022-12-25T12:03:33.988Z,80.18
2022-12-25T12:06:41.235Z,80.10
2022-12-25T12:09:35.958Z,80.14
2022-12-25T12:12:57.915Z,80.20
2022-12-25T12:15:52.338Z,80.14
2022-12-25T12:18:37.028Z,80.08
2022-12-25T12:21:37.944Z,80.02
2022-12-25T12:24:26.549Z,79.81
2022-12-25T12:27:18.571Z,79.87
2022-12-25T12:30:06.582Z,79.69
2022-12-25T12:32:54.634Z,79.71
2022-12-25T12:35:41.481Z,79.65
2022-12-25T12:38:27.897Z,79.73
2022-12-25T12:41:17.131Z,79.67
2022-12-25T12:44:14.367Z,79.62
2022-12-25T12:47:05.101Z,79.53
2022-12-25T12:49:48.502Z,79.42
2022-12-25T12:52:41.250Z,79.47
2022-12-25T12:55:36.583Z,79.38
2022-12-25T12:58:07.116Z,79.47
2022-12-25T13:01:17.918Z,79.48
2022-12-25T13:04:31.880Z,79.36
2022-12-25T13:07:42.297Z,79.29
2022-12-25T13:10:27.053Z,79.30
2022-12-25T13:13:17.115Z,79.08
2022-12-25T13:16:02.052Z,79.01
2022-12-25T13:18:47.157Z,79.04
2022-12-25T13:21:31.894Z,79.11
2022-12-25T13:24:28.364Z,79.05
2022-12-25T13:27:46.384Z,79.16
2022-12-25T13:30:36.865Z,79.18
2022-12-25T13:33:29.235Z,79.05
2022-12-25T13:36:27.263Z,79.20
2022-12-25T13:39:19.370Z,79.18
2022-12-25T13:42:15.445Z,78.90
2022-12-25T13:45:02.782Z,79.09
2022-12-25T13:47:55.471Z,79.06
2022-12-25T13:50:42.586Z,79.01
2022-12-25T13:53:32.943Z,79.10
2022-12-25T13:56:19.340Z,79.11
2022-12-25T13:59:31.114Z,79.00
2022-12-25T14:02:27.878Z,79.19
2022-12-25T14:05:37.662Z,79.30
2022-12-25T14:08:31.079Z,79.20
2022-12-25T14:11:16.089Z,79.10
2022-12-25T14:14:08.122Z,79.16
2022-12-25T14:16:52.269Z,79.16
2022-12-25T14:19:31.169Z,79.13
2022-12-25T14:22:27.468Z,79.25
2022-12-25T14:25:19.106Z,78.93
2022-12-25T14:28:03.949Z,78.88
2022-12-25T14:30:52.101Z,78.82
2022-12-25T14:33:33.224Z,78.95
2022-12-25T14:36:18.525Z,78.97
2022-12-25T14:39:06.428Z,79.12
2022-12-25T14:41:56.858Z,79.02
2022-12-25T14:44:49.569Z,79.12
2022-12-25T14:47:33.277Z,78.96
2022-12-25T14:50:39.552Z,78.87
2022-12-25T14:53:25.246Z,78.93
2022-12-25T14:56:12.093Z,78.99
2022-12-25T14:58:58.705Z,78.92
2022-12-25T15:01:48.198Z,78.82
2022-12-25T15:04:32.261Z,78.94
2022-12-25T15:07:36.317Z,78.89
2022-12-25T15:10:58.370Z,78.98
2022-12-25T15:13:26.810Z,78.89
2022-12-25T15:16:32.655Z,79.00
2022-12-25T15:19:40.779Z,79.05
2022-12-25T15:22:19.547Z,79.17
2022-12-25T15:25:04.744Z,79.15
2022-12-25T15:27:44.874Z,78.97
2022-12-25T15:30:31.318Z,79.08
2022-12-25T15:33:09.056Z,79.23
2022-12-25T15:35:53.076Z,78.94
2022-12-25T15:38:41.767Z,79.00
2022-12-25T15:41:46.753Z,79.12
2022-12-25T15:44:31.952Z,78.99
2022-12-25T15:47:25.159Z,79.20
2022-12-25T15:50:04.590Z,79.25
2022-12-25T15:52:46.318Z,79.11
2022-12-25T15:55:28.254Z,78.98
2022-12-25T15:58:09.000Z,78.88
2022-12-25T16:00:49.056Z,78.82
2022-12-25T16:03:30.742Z,78.91
2022-12-25T16:06:14.804Z,78.92
2022-12-25T16:08:56.213Z,79.12
2022-12-25T16:11:34.614Z,79.08
2022-12-25T16:14:29.396Z,78.82
2022-12-25T16:17:11.597Z,78.79
2022-12-25T16:19:54.163Z,78.89
2022-12-25T16:22:33.271Z,78.88
2022-12-25T16:25:28.521Z,78.87
2022-12-25T16:28:15.382Z,79.12
2022-12-25T16:30:57.762Z,79.23
2022-12-25T16:33:39.644Z,79.11
2022-12-25T16:36:27.066Z,79.20
2022-12-25T16:39:12.949Z,79.25
2022-12-25T16:41:58.587Z,79.20
2022-12-25T16:44:41.745Z,79.24
2022-12-25T16:47:21.029Z,79.28
2022-12-25T16:50:06.841Z,79.19
2022-12-25T16:52:51.494Z,79.18
2022-12-25T16:55:31.840Z,79.36
2022-12-25T16:58:20.173Z,79.40
2022-12-25T17:01:12.417Z,79.33
2022-12-25T17:04:04.476Z,79.38
2022-12-25T17:06:47.665Z,79.15
2022-12-25T17:09:44.807Z,79.22
2022-12-25T17:12:26.004Z,79.22
2022-12-25T17:15:20.487Z,79.34
2022-12-25T17:17:58.971Z,79.40
2022-12-25T17:20:43.112Z,79.37
2022-12-25T17:23:40.612Z,79.24
2022-12-25T17:26:28.349Z,79.43
2022-12-25T17:29:22.684Z,79.43
2022-12-25T17:32:04.188Z,79.52
2022-12-25T17:34:43.810Z,79.56
2022-12-25T17:37:26.214Z,79.55
2022-12-25T17:40:08.203Z,79.77
2022-12-25T17:42:42.104Z,79.61
2022-12-25T17:45:28.370Z,79.60
2022-12-25T17:48:10.074Z,79.51
2022-12-25T17:50:51.859Z,79.51
2022-12-25T17:53:36.743Z,79.50
2022-12-25T17:56:22.034Z,79.72
2022-12-25T17:59:31.034Z,79.73
2022-12-25T18:02:12.910Z,79.85
2022-12-25T18:04:55.801Z,79.87
2022-12-25T18:07:41.291Z,80.06
2022-12-25T18:10:25.283Z,79.92
2022-12-25T18:13:16.942Z,79.87
2022-12-25T18:16:07.366Z,79.81
2022-12-25T18:18:52.281Z,79.93
2022-12-25T18:21:40.018Z,79.87
2022-12-25T18:24:20.950Z,79.90
2022-12-25T18:27:02.482Z,79.94
2022-12-25T18:29:40.311Z,80.03
2022-12-25T18:32:27.833Z,80.03
2022-12-25T18:35:06.890Z,80.02
2022-12-25T18:37:52.408Z,79.97
2022-12-25T18:40:33.329Z,79.86
2022-12-25T18:43:51.428Z,79.93
2022-12-25T18:46:24.958Z,79.93
2022-12-25T18:49:10.843Z,79.99
2022-12-25T18:51:50.402Z,79.89
2022-12-25T18:54:32.877Z,79.80
2022-12-25T18:57:07.857Z,79.93
2022-12-25T18:59:50.406Z,80.01
2022-12-25T19:02:31.543Z,80.19
2022-12-25T19:05:15.968Z,79.95
2022-12-25T19:07:55.074Z,80.03
2022-12-25T19:10:36.606Z,80.04
2022-12-25T19:13:15.162Z,79.96
2022-12-25T19:15:56.145Z,79.99
2022-12-25T19:18:39.147Z,80.10
2022-12-25T19:21:22.101Z,80.10
2022-12-25T19:24:00.237Z,80.14
2022-12-25T19:26:50.736Z,80.12
2022-12-25T19:29:29.117Z,79.97
2022-12-25T19:32:18.010Z,80.11
2022-12-25T19:34:57.526Z,79.95
2022-12-25T19:37:44.516Z,80.01
2022-12-25T19:40:27.900Z,79.98
2022-12-25T19:43:20.998Z,80.07
2022-12-25T19:46:03.319Z,79.95
2022-12-25T19:48:50.603Z,79.90
2022-12-25T19:51:32.009Z,79.93
2022-12-25T19:54:15.621Z,79.87
2022-12-25T19:57:01.928Z,79.92
2022-12-25T19:59:42.124Z,79.82
2022-12-25T20:02:27.261Z,79.89
2022-12-25T20:05:10.966Z,79.83
2022-12-25T20:07:52.963Z,79.74
2022-12-25T20:10:32.684Z,79.75
2022-12-25T20:13:14.777Z,79.84
2022-12-25T20:16:00.305Z,79.72
2022-12-25T20:18:44.684Z,79.82
2022-12-25T20:21:27.898Z,79.75
2022-12-25T20:24:12.935Z,79.81
2022-12-25T20:27:01.615Z,79.90
2022-12-25T20:29:40.610Z,79.89
2022-12-25T20:32:18.823Z,79.86
2022-12-25T20:35:02.478Z,79.92
2022-12-25T20:37:44.198Z,79.92
2022-12-25T20:40:27.598Z,79.88
2022-12-25T20:43:10.411Z,79.92
2022-12-25T20:46:02.756Z,79.92
2022-12-25T20:48:46.857Z,79.88
2022-12-25T20:51:37.136Z,79.88
2022-12-25T20:54:14.697Z,79.96
2022-12-25T20:56:51.700Z,79.93
2022-12-25T20:59:37.983Z,80.03
2022-12-25T21:02:35.338Z,79.95
2022-12-25T21:05:20.964Z,79.88
2022-12-25T21:08:00.096Z,79.93
2022-12-25T21:10:41.169Z,80.08
2022-12-25T21:13:19.631Z,80.07
2022-12-25T21:16:09.349Z,80.09
2022-12-25T21:18:51.377Z,80.15
2022-12-25T21:21:34.263Z,80.15
2022-12-25T21:24:12.657Z,80.03
2022-12-25T21:27:06.356Z,80.01
2022-12-25T21:29:45.248Z,80.05
2022-12-25T21:33:09.456Z,80.09
2022-12-25T21:35:49.056Z,80.01
2022-12-25T21:38:25.393Z,79.98
2022-12-25T21:41:14.009Z,80.06
2022-12-25T21:43:58.960Z,80.04
2022-12-25T21:46:39.390Z,79.96
2022-12-25T21:49:41.021Z,80.06
2022-12-25T21:52:20.029Z,80.08
2022-12-25T21:55:05.419Z,80.07
2022-12-25T21:57:53.271Z,80.09
2022-12-25T22:00:34.456Z,80.14
2022-12-25T22:03:13.444Z,80.17
2022-12-25T22:06:19.267Z,80.11
2022-12-25T22:09:06.633Z,80.07
2022-12-25T22:12:06.873Z,80.16
2022-12-25T22:14:57.252Z,80.09
2022-12-25T22:18:02.055Z,80.17
2022-12-25T22:20:45.988Z,80.16
2022-12-25T22:23:35.798Z,80.19
2022-12-25T22:26:20.487Z,80.15
2022-12-25T22:29:08.419Z,80.04
2022-12-25T22:31:47.815Z,80.09
2022-12-25T22:34:32.692Z,80.15
2022-12-25T22:37:20.508Z,80.20
2022-12-25T22:40:03.895Z,80.07
2022-12-25T22:42:43.402Z,79.96
2022-12-25T22:45:26.871Z,80.12
2022-12-25T22:48:07.878Z,80.16
2022-12-25T22:50:54.420Z,80.09
2022-12-25T22:53:35.562Z,80.15
2022-12-25T22:56:23.211Z,80.20
2022-12-25T22:58:56.900Z,79.98
2022-12-25T23:01:37.110Z,79.91
2022-12-25T23:04:20.524Z,80.08
2022-12-25T23:07:05.614Z,80.10
2022-12-25T23:09:48.263Z,80.11
2022-12-25T23:12:47.525Z,80.06
2022-12-25T23:15:35.455Z,79.98
2022-12-25T23:18:31.918Z,79.93
2022-12-25T23:21:35.911Z,79.90
2022-12-25T23:24:43.398Z,80.09
2022-12-25T23:27:23.897Z,80.04
2022-12-25T23:30:10.401Z,79.99
2022-12-25T23:32:57.480Z,80.03
2022-12-25T23:35:38.982Z,80.00
2022-12-25T23:38:18.990Z,79.91
2022-12-25T23:41:04.095Z,79.81
2022-12-25T23:43:51.000Z,80.01
2022-12-25T23:46:35.616Z,79.96
2022-12-25T23:49:17.001Z,79.90
2022-12-25T23:51:58.260Z,79.91
2022-12-25T23:54:36.076Z,79.90
2022-12-25T23:57:16.791Z,79.89
2022-12-25T23:59:58.692Z,79.93
